sim
Sign-in with your pilot id or email,
or register
Callsign
Passwort

Schedule Details

Flight Number: DLH2177
Departure: Paderborn Lippstadt Airport (EDLP) at 08:35
Arrival: Munich Airport (EDDM) at 09:35
Route: Lufthansa Passenger Schedule. Enter filed route here before submitting Pirep.

Weather Information
Getting current METAR information for EDLP 190450Z 13006KT CAVOK 07/02 Q1021
Getting current METAR information for EDDM 190450Z 32001KT CAVOK 04/03 Q1020 NOSIG

Schedule Frequency

Route Map